sensor_id;sensor_type;location;lat;lon;timestamp;P1;durP1;ratioP1;P2;durP2;ratioP2
5876;SDS011;2964;42.144;24.730;2023-05-07T00:02:04;8.30;;;7.80;;
5876;SDS011;2964;42.144;24.730;2023-05-07T00:04:30;8.70;;;7.90;;
5876;SDS011;2964;42.144;24.730;2023-05-07T00:07:01;7.87;;;7.17;;
5876;SDS011;2964;42.144;24.730;2023-05-07T00:09:28;11.63;;;7.67;;
5876;SDS011;2964;42.144;24.730;2023-05-07T00:11:56;8.73;;;7.93;;
5876;SDS011;2964;42.144;24.730;2023-05-07T00:14:23;10.37;;;6.87;;
5876;SDS011;2964;42.144;24.730;2023-05-07T00:16:50;8.73;;;6.87;;
5876;SDS011;2964;42.144;24.730;2023-05-07T00:19:16;7.50;;;7.00;;
5876;SDS011;2964;42.144;24.730;2023-05-07T00:21:43;7.67;;;7.07;;
5876;SDS011;2964;42.144;24.730;2023-05-07T00:24:10;6.90;;;6.40;;
5876;SDS011;2964;42.144;24.730;2023-05-07T00:26:36;6.97;;;6.47;;
5876;SDS011;2964;42.144;24.730;2023-05-07T00:29:04;7.30;;;6.60;;
5876;SDS011;2964;42.144;24.730;2023-05-07T00:31:31;6.90;;;6.50;;
5876;SDS011;2964;42.144;24.730;2023-05-07T00:33:58;10.80;;;7.37;;
5876;SDS011;2964;42.144;24.730;2023-05-07T00:36:24;7.33;;;6.93;;
5876;SDS011;2964;42.144;24.730;2023-05-07T00:38:51;7.73;;;7.13;;
5876;SDS011;2964;42.144;24.730;2023-05-07T00:41:20;7.07;;;6.57;;
5876;SDS011;2964;42.144;24.730;2023-05-07T00:43:46;8.13;;;7.47;;
5876;SDS011;2964;42.144;24.730;2023-05-07T00:46:15;8.40;;;7.70;;
5876;SDS011;2964;42.144;24.730;2023-05-07T00:48:41;8.37;;;7.67;;
5876;SDS011;2964;42.144;24.730;2023-05-07T00:51:08;8.53;;;7.70;;
5876;SDS011;2964;42.144;24.730;2023-05-07T00:53:36;7.17;;;6.53;;
5876;SDS011;2964;42.144;24.730;2023-05-07T00:56:03;7.30;;;6.70;;
5876;SDS011;2964;42.144;24.730;2023-05-07T00:58:31;7.03;;;6.63;;
5876;SDS011;2964;42.144;24.730;2023-05-07T01:00:59;8.10;;;7.40;;
5876;SDS011;2964;42.144;24.730;2023-05-07T01:03:27;11.70;;;6.93;;
5876;SDS011;2964;42.144;24.730;2023-05-07T01:05:54;7.53;;;7.03;;
5876;SDS011;2964;42.144;24.730;2023-05-07T01:08:23;9.90;;;6.60;;
5876;SDS011;2964;42.144;24.730;2023-05-07T01:10:53;7.87;;;7.33;;
5876;SDS011;2964;42.144;24.730;2023-05-07T01:13:20;8.37;;;7.87;;
5876;SDS011;2964;42.144;24.730;2023-05-07T01:15:47;8.37;;;7.77;;
5876;SDS011;2964;42.144;24.730;2023-05-07T01:18:14;10.03;;;8.23;;
5876;SDS011;2964;42.144;24.730;2023-05-07T01:20:42;8.57;;;7.87;;
5876;SDS011;2964;42.144;24.730;2023-05-07T01:23:10;9.77;;;8.40;;
5876;SDS011;2964;42.144;24.730;2023-05-07T01:25:37;8.77;;;8.13;;
5876;SDS011;2964;42.144;24.730;2023-05-07T01:28:04;9.33;;;8.57;;
5876;SDS011;2964;42.144;24.730;2023-05-07T01:30:30;9.07;;;8.27;;
5876;SDS011;2964;42.144;24.730;2023-05-07T01:33:00;9.27;;;8.47;;
5876;SDS011;2964;42.144;24.730;2023-05-07T01:35:34;8.80;;;8.00;;
5876;SDS011;2964;42.144;24.730;2023-05-07T01:38:05;8.93;;;8.03;;
5876;SDS011;2964;42.144;24.730;2023-05-07T01:40:33;8.57;;;7.77;;
5876;SDS011;2964;42.144;24.730;2023-05-07T01:43:00;9.87;;;9.07;;
5876;SDS011;2964;42.144;24.730;2023-05-07T01:45:28;9.20;;;8.40;;
5876;SDS011;2964;42.144;24.730;2023-05-07T01:47:56;9.23;;;8.40;;
5876;SDS011;2964;42.144;24.730;2023-05-07T01:50:24;10.90;;;9.80;;
5876;SDS011;2964;42.144;24.730;2023-05-07T01:52:53;10.60;;;9.43;;
5876;SDS011;2964;42.144;24.730;2023-05-07T01:55:19;11.00;;;8.70;;
5876;SDS011;2964;42.144;24.730;2023-05-07T01:57:47;10.07;;;9.27;;
5876;SDS011;2964;42.144;24.730;2023-05-07T02:00:14;11.83;;;9.90;;
5876;SDS011;2964;42.144;24.730;2023-05-07T02:02:42;10.17;;;9.30;;
5876;SDS011;2964;42.144;24.730;2023-05-07T02:05:09;9.23;;;8.63;;
5876;SDS011;2964;42.144;24.730;2023-05-07T02:07:35;11.40;;;10.30;;
5876;SDS011;2964;42.144;24.730;2023-05-07T02:10:02;11.27;;;10.17;;
5876;SDS011;2964;42.144;24.730;2023-05-07T02:12:30;11.00;;;10.13;;
5876;SDS011;2964;42.144;24.730;2023-05-07T02:14:58;11.87;;;10.73;;
5876;SDS011;2964;42.144;24.730;2023-05-07T02:17:24;11.57;;;10.47;;
5876;SDS011;2964;42.144;24.730;2023-05-07T02:19:51;10.30;;;9.40;;
5876;SDS011;2964;42.144;24.730;2023-05-07T02:22:18;10.27;;;9.47;;
5876;SDS011;2964;42.144;24.730;2023-05-07T02:24:44;12.47;;;9.53;;
5876;SDS011;2964;42.144;24.730;2023-05-07T02:27:11;11.23;;;10.13;;
5876;SDS011;2964;42.144;24.730;2023-05-07T02:29:38;10.23;;;9.63;;
5876;SDS011;2964;42.144;24.730;2023-05-07T02:32:06;23.70;;;11.27;;
5876;SDS011;2964;42.144;24.730;2023-05-07T02:34:32;11.63;;;10.47;;
5876;SDS011;2964;42.144;24.730;2023-05-07T02:36:59;12.10;;;10.80;;
5876;SDS011;2964;42.144;24.730;2023-05-07T02:39:26;12.07;;;10.87;;
5876;SDS011;2964;42.144;24.730;2023-05-07T02:41:53;13.00;;;11.77;;
5876;SDS011;2964;42.144;24.730;2023-05-07T02:44:19;11.87;;;10.60;;
5876;SDS011;2964;42.144;24.730;2023-05-07T02:46:46;17.27;;;11.97;;
5876;SDS011;2964;42.144;24.730;2023-05-07T02:49:14;14.53;;;12.90;;
5876;SDS011;2964;42.144;24.730;2023-05-07T02:51:41;13.53;;;12.33;;
5876;SDS011;2964;42.144;24.730;2023-05-07T02:54:07;14.23;;;12.77;;
5876;SDS011;2964;42.144;24.730;2023-05-07T02:56:34;15.30;;;13.77;;
5876;SDS011;2964;42.144;24.730;2023-05-07T02:59:01;15.67;;;14.07;;
5876;SDS011;2964;42.144;24.730;2023-05-07T03:01:27;14.47;;;13.17;;
5876;SDS011;2964;42.144;24.730;2023-05-07T03:03:54;16.17;;;14.57;;
5876;SDS011;2964;42.144;24.730;2023-05-07T03:06:22;22.07;;;14.37;;
5876;SDS011;2964;42.144;24.730;2023-05-07T03:08:49;16.07;;;14.40;;
5876;SDS011;2964;42.144;24.730;2023-05-07T03:11:16;20.03;;;14.93;;
5876;SDS011;2964;42.144;24.730;2023-05-07T03:13:43;15.83;;;14.23;;
5876;SDS011;2964;42.144;24.730;2023-05-07T03:16:09;17.93;;;14.83;;
5876;SDS011;2964;42.144;24.730;2023-05-07T03:18:36;19.20;;;14.83;;
5876;SDS011;2964;42.144;24.730;2023-05-07T03:21:02;17.43;;;15.77;;
5876;SDS011;2964;42.144;24.730;2023-05-07T03:23:30;17.70;;;15.80;;
5876;SDS011;2964;42.144;24.730;2023-05-07T03:25:57;16.30;;;14.63;;
5876;SDS011;2964;42.144;24.730;2023-05-07T03:28:24;18.63;;;15.93;;
5876;SDS011;2964;42.144;24.730;2023-05-07T03:30:50;16.93;;;15.30;;
5876;SDS011;2964;42.144;24.730;2023-05-07T03:33:17;16.90;;;15.30;;
5876;SDS011;2964;42.144;24.730;2023-05-07T03:35:44;21.30;;;15.63;;
5876;SDS011;2964;42.144;24.730;2023-05-07T03:38:10;17.70;;;15.80;;
5876;SDS011;2964;42.144;24.730;2023-05-07T03:40:38;17.23;;;15.63;;
5876;SDS011;2964;42.144;24.730;2023-05-07T03:43:05;18.37;;;16.17;;
5876;SDS011;2964;42.144;24.730;2023-05-07T03:45:32;17.77;;;16.17;;
5876;SDS011;2964;42.144;24.730;2023-05-07T03:47:58;18.87;;;16.20;;
5876;SDS011;2964;42.144;24.730;2023-05-07T03:50:25;19.10;;;17.07;;
5876;SDS011;2964;42.144;24.730;2023-05-07T03:52:52;17.67;;;15.43;;
5876;SDS011;2964;42.144;24.730;2023-05-07T03:55:18;17.67;;;15.90;;
5876;SDS011;2964;42.144;24.730;2023-05-07T03:57:47;17.23;;;15.47;;
5876;SDS011;2964;42.144;24.730;2023-05-07T04:00:13;17.50;;;15.80;;
5876;SDS011;2964;42.144;24.730;2023-05-07T04:02:40;17.67;;;15.90;;
5876;SDS011;2964;42.144;24.730;2023-05-07T04:05:07;17.50;;;15.73;;
5876;SDS011;2964;42.144;24.730;2023-05-07T04:07:34;17.70;;;15.27;;
5876;SDS011;2964;42.144;24.730;2023-05-07T04:10:01;16.23;;;14.63;;
5876;SDS011;2964;42.144;24.730;2023-05-07T04:12:27;17.43;;;15.90;;
5876;SDS011;2964;42.144;24.730;2023-05-07T04:14:55;21.10;;;14.40;;
5876;SDS011;2964;42.144;24.730;2023-05-07T04:17:22;15.40;;;14.00;;
5876;SDS011;2964;42.144;24.730;2023-05-07T04:19:49;16.20;;;14.63;;
5876;SDS011;2964;42.144;24.730;2023-05-07T04:22:15;14.87;;;13.07;;
5876;SDS011;2964;42.144;24.730;2023-05-07T04:24:42;14.87;;;13.43;;
5876;SDS011;2964;42.144;24.730;2023-05-07T04:27:08;18.80;;;12.63;;
5876;SDS011;2964;42.144;24.730;2023-05-07T04:29:35;13.07;;;12.07;;
5876;SDS011;2964;42.144;24.730;2023-05-07T04:32:05;13.03;;;11.67;;
5876;SDS011;2964;42.144;24.730;2023-05-07T04:34:31;14.23;;;12.87;;
5876;SDS011;2964;42.144;24.730;2023-05-07T04:36:58;13.47;;;12.10;;
5876;SDS011;2964;42.144;24.730;2023-05-07T04:39:25;13.60;;;12.43;;
5876;SDS011;2964;42.144;24.730;2023-05-07T04:41:52;12.13;;;11.03;;
5876;SDS011;2964;42.144;24.730;2023-05-07T04:44:18;12.13;;;11.33;;
5876;SDS011;2964;42.144;24.730;2023-05-07T04:46:45;11.00;;;9.93;;
5876;SDS011;2964;42.144;24.730;2023-05-07T04:49:13;10.03;;;9.43;;
5876;SDS011;2964;42.144;24.730;2023-05-07T04:51:40;9.53;;;8.90;;
5876;SDS011;2964;42.144;24.730;2023-05-07T04:54:08;9.50;;;8.67;;
5876;SDS011;2964;42.144;24.730;2023-05-07T04:56:35;9.33;;;8.63;;
5876;SDS011;2964;42.144;24.730;2023-05-07T04:59:01;9.17;;;8.37;;
5876;SDS011;2964;42.144;24.730;2023-05-07T05:01:28;7.77;;;7.27;;
5876;SDS011;2964;42.144;24.730;2023-05-07T05:03:55;9.37;;;8.47;;
5876;SDS011;2964;42.144;24.730;2023-05-07T05:06:23;8.80;;;8.10;;
5876;SDS011;2964;42.144;24.730;2023-05-07T05:08:49;8.53;;;7.77;;
5876;SDS011;2964;42.144;24.730;2023-05-07T05:11:16;8.30;;;7.60;;
5876;SDS011;2964;42.144;24.730;2023-05-07T05:13:42;8.90;;;8.30;;
5876;SDS011;2964;42.144;24.730;2023-05-07T05:16:09;8.98;;;8.32;;
5876;SDS011;2964;42.144;24.730;2023-05-07T05:18:36;9.37;;;8.67;;
5876;SDS011;2964;42.144;24.730;2023-05-07T05:21:03;9.70;;;8.73;;
5876;SDS011;2964;42.144;24.730;2023-05-07T05:23:31;8.57;;;7.93;;
5876;SDS011;2964;42.144;24.730;2023-05-07T05:25:57;8.68;;;7.95;;
5876;SDS011;2964;42.144;24.730;2023-05-07T05:28:24;9.07;;;8.27;;
5876;SDS011;2964;42.144;24.730;2023-05-07T05:30:52;9.32;;;8.63;;
5876;SDS011;2964;42.144;24.730;2023-05-07T05:33:19;7.97;;;7.28;;
5876;SDS011;2964;42.144;24.730;2023-05-07T05:35:45;8.50;;;7.72;;
5876;SDS011;2964;42.144;24.730;2023-05-07T05:38:13;8.70;;;8.05;;
5876;SDS011;2964;42.144;24.730;2023-05-07T05:40:41;8.75;;;8.02;;
5876;SDS011;2964;42.144;24.730;2023-05-07T05:43:07;11.60;;;8.57;;
5876;SDS011;2964;42.144;24.730;2023-05-07T05:45:34;9.00;;;8.18;;
5876;SDS011;2964;42.144;24.730;2023-05-07T05:48:01;9.32;;;8.40;;
5876;SDS011;2964;42.144;24.730;2023-05-07T05:50:27;8.73;;;8.02;;
5876;SDS011;2964;42.144;24.730;2023-05-07T05:52:54;8.70;;;7.85;;
5876;SDS011;2964;42.144;24.730;2023-05-07T05:55:21;12.35;;;8.00;;
5876;SDS011;2964;42.144;24.730;2023-05-07T05:57:49;8.07;;;7.30;;
5876;SDS011;2964;42.144;24.730;2023-05-07T06:00:16;8.00;;;7.50;;
5876;SDS011;2964;42.144;24.730;2023-05-07T06:02:43;8.43;;;7.70;;
5876;SDS011;2964;42.144;24.730;2023-05-07T06:05:10;9.43;;;8.50;;
5876;SDS011;2964;42.144;24.730;2023-05-07T06:07:37;8.75;;;8.05;;
5876;SDS011;2964;42.144;24.730;2023-05-07T06:10:03;9.90;;;8.88;;
5876;SDS011;2964;42.144;24.730;2023-05-07T06:12:31;8.40;;;7.72;;
5876;SDS011;2964;42.144;24.730;2023-05-07T06:14:59;8.75;;;8.05;;
5876;SDS011;2964;42.144;24.730;2023-05-07T06:17:26;9.05;;;7.15;;
5876;SDS011;2964;42.144;24.730;2023-05-07T06:19:53;15.73;;;8.00;;
5876;SDS011;2964;42.144;24.730;2023-05-07T06:22:20;7.53;;;7.05;;
5876;SDS011;2964;42.144;24.730;2023-05-07T06:24:46;8.00;;;7.47;;
5876;SDS011;2964;42.144;24.730;2023-05-07T06:27:13;8.25;;;7.60;;
5876;SDS011;2964;42.144;24.730;2023-05-07T06:29:40;8.27;;;7.43;;
5876;SDS011;2964;42.144;24.730;2023-05-07T06:32:08;7.82;;;7.07;;
5876;SDS011;2964;42.144;24.730;2023-05-07T06:34:35;10.32;;;7.53;;
5876;SDS011;2964;42.144;24.730;2023-05-07T06:37:01;8.20;;;7.60;;
5876;SDS011;2964;42.144;24.730;2023-05-07T06:39:28;8.40;;;7.72;;
5876;SDS011;2964;42.144;24.730;2023-05-07T06:41:55;7.47;;;6.78;;
5876;SDS011;2964;42.144;24.730;2023-05-07T06:44:22;7.30;;;6.80;;
5876;SDS011;2964;42.144;24.730;2023-05-07T06:46:48;8.52;;;7.60;;
5876;SDS011;2964;42.144;24.730;2023-05-07T06:49:16;12.38;;;7.47;;
5876;SDS011;2964;42.144;24.730;2023-05-07T06:51:43;8.88;;;7.47;;
5876;SDS011;2964;42.144;24.730;2023-05-07T06:54:10;7.43;;;6.93;;
5876;SDS011;2964;42.144;24.730;2023-05-07T06:56:36;11.30;;;8.35;;
5876;SDS011;2964;42.144;24.730;2023-05-07T06:59:03;8.70;;;8.05;;
5876;SDS011;2964;42.144;24.730;2023-05-07T07:01:30;8.75;;;7.30;;
5876;SDS011;2964;42.144;24.730;2023-05-07T07:03:56;7.55;;;7.07;;
5876;SDS011;2964;42.144;24.730;2023-05-07T07:06:24;8.60;;;8.02;;
5876;SDS011;2964;42.144;24.730;2023-05-07T07:08:52;8.40;;;7.70;;
5876;SDS011;2964;42.144;24.730;2023-05-07T07:11:18;7.78;;;7.28;;
5876;SDS011;2964;42.144;24.730;2023-05-07T07:13:45;8.35;;;7.65;;
5876;SDS011;2964;42.144;24.730;2023-05-07T07:16:12;10.13;;;7.88;;
5876;SDS011;2964;42.144;24.730;2023-05-07T07:18:39;8.43;;;7.68;;
5876;SDS011;2964;42.144;24.730;2023-05-07T07:21:05;8.98;;;8.07;;
5876;SDS011;2964;42.144;24.730;2023-05-07T07:23:33;11.27;;;8.15;;
5876;SDS011;2964;42.144;24.730;2023-05-07T07:26:00;8.57;;;7.82;;
5876;SDS011;2964;42.144;24.730;2023-05-07T07:28:27;8.93;;;8.23;;
5876;SDS011;2964;42.144;24.730;2023-05-07T07:30:53;9.13;;;8.30;;
5876;SDS011;2964;42.144;24.730;2023-05-07T07:33:20;9.35;;;7.72;;
5876;SDS011;2964;42.144;24.730;2023-05-07T07:35:46;9.90;;;9.02;;
5876;SDS011;2964;42.144;24.730;2023-05-07T07:38:13;9.35;;;8.65;;
5876;SDS011;2964;42.144;24.730;2023-05-07T07:40:41;8.18;;;7.70;;
5876;SDS011;2964;42.144;24.730;2023-05-07T07:43:08;9.82;;;8.85;;
5876;SDS011;2964;42.144;24.730;2023-05-07T07:45:35;10.00;;;9.35;;
5876;SDS011;2964;42.144;24.730;2023-05-07T07:48:02;11.05;;;10.00;;
5876;SDS011;2964;42.144;24.730;2023-05-07T07:50:29;10.32;;;9.50;;
5876;SDS011;2964;42.144;24.730;2023-05-07T07:52:56;9.68;;;8.75;;
5876;SDS011;2964;42.144;24.730;2023-05-07T07:55:22;11.82;;;9.25;;
5876;SDS011;2964;42.144;24.730;2023-05-07T07:57:51;10.00;;;9.30;;
5876;SDS011;2964;42.144;24.730;2023-05-07T08:00:18;10.82;;;8.45;;
5876;SDS011;2964;42.144;24.730;2023-05-07T08:02:44;9.40;;;8.45;;
5876;SDS011;2964;42.144;24.730;2023-05-07T08:05:11;10.35;;;9.27;;
5876;SDS011;2964;42.144;24.730;2023-05-07T08:07:38;9.82;;;9.15;;
5876;SDS011;2964;42.144;24.730;2023-05-07T08:10:05;10.25;;;9.35;;
5876;SDS011;2964;42.144;24.730;2023-05-07T08:12:32;8.82;;;8.23;;
5876;SDS011;2964;42.144;24.730;2023-05-07T08:15:00;9.27;;;8.57;;
5876;SDS011;2964;42.144;24.730;2023-05-07T08:17:26;8.77;;;7.93;;
5876;SDS011;2964;42.144;24.730;2023-05-07T08:19:53;7.90;;;7.43;;
5876;SDS011;2964;42.144;24.730;2023-05-07T08:22:20;8.27;;;7.50;;
5876;SDS011;2964;42.144;24.730;2023-05-07T08:24:47;7.80;;;7.32;;
5876;SDS011;2964;42.144;24.730;2023-05-07T08:27:14;7.88;;;7.22;;
5876;SDS011;2964;42.144;24.730;2023-05-07T08:29:41;8.25;;;7.18;;
5876;SDS011;2964;42.144;24.730;2023-05-07T08:32:09;10.38;;;9.68;;
5876;SDS011;2964;42.144;24.730;2023-05-07T08:34:35;7.90;;;7.18;;
5876;SDS011;2964;42.144;24.730;2023-05-07T08:37:02;7.80;;;7.07;;
5876;SDS011;2964;42.144;24.730;2023-05-07T08:39:29;6.80;;;6.45;;
5876;SDS011;2964;42.144;24.730;2023-05-07T08:41:55;7.65;;;7.15;;
5876;SDS011;2964;42.144;24.730;2023-05-07T08:44:23;6.85;;;6.25;;
5876;SDS011;2964;42.144;24.730;2023-05-07T08:46:54;6.72;;;6.28;;
5876;SDS011;2964;42.144;24.730;2023-05-07T08:49:24;7.88;;;7.25;;
5876;SDS011;2964;42.144;24.730;2023-05-07T08:51:51;8.15;;;7.43;;
5876;SDS011;2964;42.144;24.730;2023-05-07T08:54:18;6.75;;;6.22;;
5876;SDS011;2964;42.144;24.730;2023-05-07T08:56:47;6.80;;;6.40;;
5876;SDS011;2964;42.144;24.730;2023-05-07T08:59:15;7.57;;;6.65;;
5876;SDS011;2964;42.144;24.730;2023-05-07T09:01:41;6.85;;;6.45;;
5876;SDS011;2964;42.144;24.730;2023-05-07T09:04:08;7.55;;;6.55;;
5876;SDS011;2964;42.144;24.730;2023-05-07T09:06:36;7.30;;;6.93;;
5876;SDS011;2964;42.144;24.730;2023-05-07T09:09:07;7.88;;;6.55;;
5876;SDS011;2964;42.144;24.730;2023-05-07T09:11:33;6.03;;;5.72;;
5876;SDS011;2964;42.144;24.730;2023-05-07T09:14:00;7.20;;;6.63;;
5876;SDS011;2964;42.144;24.730;2023-05-07T09:16:28;6.13;;;5.75;;
5876;SDS011;2964;42.144;24.730;2023-05-07T09:18:56;7.22;;;6.30;;
5876;SDS011;2964;42.144;24.730;2023-05-07T09:21:24;6.43;;;6.05;;
5876;SDS011;2964;42.144;24.730;2023-05-07T09:23:52;5.68;;;5.28;;
5876;SDS011;2964;42.144;24.730;2023-05-07T09:26:21;6.55;;;6.25;;
5876;SDS011;2964;42.144;24.730;2023-05-07T09:28:48;5.68;;;5.38;;
5876;SDS011;2964;42.144;24.730;2023-05-07T09:31:14;6.30;;;6.00;;
5876;SDS011;2964;42.144;24.730;2023-05-07T09:33:41;6.10;;;5.78;;
5876;SDS011;2964;42.144;24.730;2023-05-07T09:36:08;7.18;;;6.60;;
5876;SDS011;2964;42.144;24.730;2023-05-07T09:38:36;6.25;;;5.95;;
5876;SDS011;2964;42.144;24.730;2023-05-07T09:41:05;6.53;;;5.97;;
5876;SDS011;2964;42.144;24.730;2023-05-07T09:43:34;6.32;;;5.82;;
5876;SDS011;2964;42.144;24.730;2023-05-07T09:46:02;6.25;;;5.95;;
5876;SDS011;2964;42.144;24.730;2023-05-07T09:48:29;6.53;;;6.22;;
5876;SDS011;2964;42.144;24.730;2023-05-07T09:50:58;6.63;;;6.00;;
5876;SDS011;2964;42.144;24.730;2023-05-07T09:53:29;6.30;;;6.00;;
5876;SDS011;2964;42.144;24.730;2023-05-07T09:55:56;7.45;;;6.95;;
5876;SDS011;2964;42.144;24.730;2023-05-07T09:58:25;6.53;;;6.10;;
5876;SDS011;2964;42.144;24.730;2023-05-07T10:00:52;6.25;;;5.95;;
5876;SDS011;2964;42.144;24.730;2023-05-07T10:03:19;6.10;;;5.72;;
5876;SDS011;2964;42.144;24.730;2023-05-07T10:05:48;5.57;;;5.28;;
5876;SDS011;2964;42.144;24.730;2023-05-07T10:08:16;6.53;;;6.13;;
5876;SDS011;2964;42.144;24.730;2023-05-07T10:10:45;6.65;;;6.25;;
5876;SDS011;2964;42.144;24.730;2023-05-07T10:13:12;6.70;;;6.15;;
5876;SDS011;2964;42.144;24.730;2023-05-07T10:15:40;5.93;;;5.63;;
5876;SDS011;2964;42.144;24.730;2023-05-07T10:18:07;6.28;;;5.97;;
5876;SDS011;2964;42.144;24.730;2023-05-07T10:20:35;6.60;;;6.20;;
5876;SDS011;2964;42.144;24.730;2023-05-07T10:23:04;9.20;;;6.45;;
5876;SDS011;2964;42.144;24.730;2023-05-07T10:25:32;5.97;;;5.78;;
5876;SDS011;2964;42.144;24.730;2023-05-07T10:27:59;6.93;;;6.22;;
5876;SDS011;2964;42.144;24.730;2023-05-07T10:30:33;6.45;;;6.10;;
5876;SDS011;2964;42.144;24.730;2023-05-07T10:33:14;7.05;;;6.28;;
5876;SDS011;2964;42.144;24.730;2023-05-07T10:35:44;6.45;;;5.88;;
5876;SDS011;2964;42.144;24.730;2023-05-07T10:38:12;6.90;;;6.40;;
5876;SDS011;2964;42.144;24.730;2023-05-07T10:40:39;6.47;;;6.07;;
5876;SDS011;2964;42.144;24.730;2023-05-07T10:43:06;6.25;;;5.75;;
5876;SDS011;2964;42.144;24.730;2023-05-07T10:45:33;5.85;;;5.47;;
5876;SDS011;2964;42.144;24.730;2023-05-07T10:48:09;7.90;;;5.97;;
5876;SDS011;2964;42.144;24.730;2023-05-07T10:50:39;6.25;;;5.85;;
5876;SDS011;2964;42.144;24.730;2023-05-07T10:53:22;6.70;;;6.10;;
5876;SDS011;2964;42.144;24.730;2023-05-07T10:55:52;5.27;;;4.90;;
5876;SDS011;2964;42.144;24.730;2023-05-07T10:58:52;6.25;;;5.82;;
5876;SDS011;2964;42.144;24.730;2023-05-07T11:04:16;5.90;;;5.50;;
5876;SDS011;2964;42.144;24.730;2023-05-07T11:10:00;6.00;;;5.60;;
5876;SDS011;2964;42.144;24.730;2023-05-07T11:12:49;9.75;;;5.75;;
5876;SDS011;2964;42.144;24.730;2023-05-07T11:15:33;8.27;;;5.53;;
5876;SDS011;2964;42.144;24.730;2023-05-07T11:18:04;6.47;;;5.93;;
5876;SDS011;2964;42.144;24.730;2023-05-07T11:26:17;5.87;;;5.37;;
5876;SDS011;2964;42.144;24.730;2023-05-07T11:28:45;5.50;;;5.20;;
5876;SDS011;2964;42.144;24.730;2023-05-07T11:31:12;6.07;;;5.67;;
5876;SDS011;2964;42.144;24.730;2023-05-07T11:33:39;5.23;;;4.93;;
5876;SDS011;2964;42.144;24.730;2023-05-07T11:36:07;5.50;;;5.20;;
5876;SDS011;2964;42.144;24.730;2023-05-07T11:38:34;5.70;;;5.10;;
5876;SDS011;2964;42.144;24.730;2023-05-07T11:41:02;5.47;;;5.20;;
5876;SDS011;2964;42.144;24.730;2023-05-07T11:43:30;5.47;;;5.07;;
5876;SDS011;2964;42.144;24.730;2023-05-07T11:46:05;5.67;;;5.33;;
5876;SDS011;2964;42.144;24.730;2023-05-07T11:48:34;6.38;;;5.85;;
5876;SDS011;2964;42.144;24.730;2023-05-07T11:51:01;5.67;;;5.27;;
5876;SDS011;2964;42.144;24.730;2023-05-07T11:53:35;5.82;;;5.50;;
5876;SDS011;2964;42.144;24.730;2023-05-07T11:56:05;5.43;;;5.13;;
5876;SDS011;2964;42.144;24.730;2023-05-07T11:58:33;5.32;;;5.13;;
5876;SDS011;2964;42.144;24.730;2023-05-07T12:01:00;5.45;;;5.05;;
5876;SDS011;2964;42.144;24.730;2023-05-07T12:03:28;4.60;;;4.40;;
5876;SDS011;2964;42.144;24.730;2023-05-07T12:05:54;5.33;;;5.00;;
5876;SDS011;2964;42.144;24.730;2023-05-07T12:08:21;5.00;;;4.70;;
5876;SDS011;2964;42.144;24.730;2023-05-07T12:10:49;5.07;;;4.87;;
5876;SDS011;2964;42.144;24.730;2023-05-07T12:13:16;5.10;;;4.82;;
5876;SDS011;2964;42.144;24.730;2023-05-07T12:15:43;5.18;;;4.97;;
5876;SDS011;2964;42.144;24.730;2023-05-07T12:18:10;6.00;;;5.57;;
5876;SDS011;2964;42.144;24.730;2023-05-07T12:20:39;5.70;;;5.32;;
5876;SDS011;2964;42.144;24.730;2023-05-07T12:23:06;6.40;;;6.10;;
5876;SDS011;2964;42.144;24.730;2023-05-07T12:25:34;5.70;;;5.40;;
5876;SDS011;2964;42.144;24.730;2023-05-07T12:28:01;6.28;;;5.65;;
5876;SDS011;2964;42.144;24.730;2023-05-07T12:30:28;5.80;;;5.35;;
5876;SDS011;2964;42.144;24.730;2023-05-07T12:32:55;6.28;;;5.68;;
5876;SDS011;2964;42.144;24.730;2023-05-07T12:35:26;5.22;;;5.03;;
5876;SDS011;2964;42.144;24.730;2023-05-07T12:37:58;5.60;;;5.28;;
5876;SDS011;2964;42.144;24.730;2023-05-07T12:40:35;5.55;;;5.25;;
5876;SDS011;2964;42.144;24.730;2023-05-07T12:43:02;5.80;;;5.32;;
5876;SDS011;2964;42.144;24.730;2023-05-07T12:45:29;5.15;;;4.95;;
5876;SDS011;2964;42.144;24.730;2023-05-07T12:47:56;5.13;;;4.63;;
5876;SDS011;2964;42.144;24.730;2023-05-07T12:50:30;5.13;;;4.93;;
5876;SDS011;2964;42.144;24.730;2023-05-07T12:52:58;5.10;;;4.85;;
5876;SDS011;2964;42.144;24.730;2023-05-07T12:55:28;5.15;;;4.80;;
5876;SDS011;2964;42.144;24.730;2023-05-07T12:57:55;7.83;;;4.87;;
5876;SDS011;2964;42.144;24.730;2023-05-07T13:00:35;5.25;;;4.88;;
5876;SDS011;2964;42.144;24.730;2023-05-07T13:03:03;5.88;;;5.53;;
5876;SDS011;2964;42.144;24.730;2023-05-07T13:05:30;5.32;;;5.03;;
5876;SDS011;2964;42.144;24.730;2023-05-07T13:07:58;5.63;;;5.13;;
5876;SDS011;2964;42.144;24.730;2023-05-07T13:10:25;4.80;;;4.53;;
5876;SDS011;2964;42.144;24.730;2023-05-07T13:12:53;5.70;;;5.13;;
5876;SDS011;2964;42.144;24.730;2023-05-07T13:15:21;5.82;;;5.43;;
5876;SDS011;2964;42.144;24.730;2023-05-07T13:17:48;5.65;;;5.25;;
5876;SDS011;2964;42.144;24.730;2023-05-07T13:20:15;5.65;;;5.43;;
5876;SDS011;2964;42.144;24.730;2023-05-07T13:22:42;6.03;;;4.57;;
5876;SDS011;2964;42.144;24.730;2023-05-07T13:25:10;5.32;;;4.97;;
5876;SDS011;2964;42.144;24.730;2023-05-07T13:27:36;4.60;;;4.40;;
5876;SDS011;2964;42.144;24.730;2023-05-07T13:30:03;4.68;;;4.47;;
5876;SDS011;2964;42.144;24.730;2023-05-07T13:32:31;5.03;;;4.83;;
5876;SDS011;2964;42.144;24.730;2023-05-07T13:34:58;4.87;;;4.57;;
5876;SDS011;2964;42.144;24.730;2023-05-07T13:37:25;4.90;;;4.70;;
5876;SDS011;2964;42.144;24.730;2023-05-07T13:39:51;5.00;;;4.53;;
5876;SDS011;2964;42.144;24.730;2023-05-07T13:42:19;4.97;;;4.68;;
5876;SDS011;2964;42.144;24.730;2023-05-07T13:44:46;5.13;;;4.63;;
5876;SDS011;2964;42.144;24.730;2023-05-07T13:47:13;5.53;;;5.03;;
5876;SDS011;2964;42.144;24.730;2023-05-07T13:49:39;6.18;;;5.78;;
5876;SDS011;2964;42.144;24.730;2023-05-07T13:52:06;5.38;;;4.95;;
5876;SDS011;2964;42.144;24.730;2023-05-07T13:54:33;4.90;;;4.70;;
5876;SDS011;2964;42.144;24.730;2023-05-07T13:56:59;5.57;;;5.18;;
5876;SDS011;2964;42.144;24.730;2023-05-07T13:59:28;4.53;;;4.23;;
5876;SDS011;2964;42.144;24.730;2023-05-07T14:01:54;4.80;;;4.50;;
5876;SDS011;2964;42.144;24.730;2023-05-07T14:04:21;4.72;;;4.53;;
5876;SDS011;2964;42.144;24.730;2023-05-07T14:06:48;5.65;;;3.70;;
5876;SDS011;2964;42.144;24.730;2023-05-07T14:09:14;5.32;;;4.93;;
5876;SDS011;2964;42.144;24.730;2023-05-07T14:11:41;4.55;;;4.35;;
5876;SDS011;2964;42.144;24.730;2023-05-07T14:14:08;4.75;;;4.55;;
5876;SDS011;2964;42.144;24.730;2023-05-07T14:16:37;5.90;;;5.50;;
5876;SDS011;2964;42.144;24.730;2023-05-07T14:19:03;5.10;;;4.80;;
5876;SDS011;2964;42.144;24.730;2023-05-07T14:21:30;4.57;;;4.38;;
5876;SDS011;2964;42.144;24.730;2023-05-07T14:23:57;5.72;;;5.47;;
5876;SDS011;2964;42.144;24.730;2023-05-07T14:26:25;5.07;;;4.72;;
5876;SDS011;2964;42.144;24.730;2023-05-07T14:28:52;5.25;;;4.85;;
5876;SDS011;2964;42.144;24.730;2023-05-07T14:31:22;4.40;;;4.15;;
5876;SDS011;2964;42.144;24.730;2023-05-07T14:33:50;7.13;;;4.75;;
5876;SDS011;2964;42.144;24.730;2023-05-07T14:36:17;5.32;;;4.90;;
5876;SDS011;2964;42.144;24.730;2023-05-07T14:38:45;4.63;;;4.18;;
5876;SDS011;2964;42.144;24.730;2023-05-07T14:41:11;4.95;;;4.65;;
5876;SDS011;2964;42.144;24.730;2023-05-07T14:43:38;4.53;;;4.22;;
5876;SDS011;2964;42.144;24.730;2023-05-07T14:46:05;4.55;;;4.35;;
5876;SDS011;2964;42.144;24.730;2023-05-07T14:48:31;4.85;;;4.50;;
5876;SDS011;2964;42.144;24.730;2023-05-07T14:50:59;4.85;;;4.65;;
5876;SDS011;2964;42.144;24.730;2023-05-07T14:53:26;5.88;;;4.15;;
5876;SDS011;2964;42.144;24.730;2023-05-07T14:55:52;4.60;;;4.30;;
5876;SDS011;2964;42.144;24.730;2023-05-07T14:58:20;4.60;;;4.20;;
5876;SDS011;2964;42.144;24.730;2023-05-07T15:00:46;5.13;;;4.82;;
5876;SDS011;2964;42.144;24.730;2023-05-07T15:03:13;4.78;;;4.47;;
5876;SDS011;2964;42.144;24.730;2023-05-07T15:05:40;3.97;;;3.83;;
5876;SDS011;2964;42.144;24.730;2023-05-07T15:08:08;4.57;;;4.17;;
5876;SDS011;2964;42.144;24.730;2023-05-07T15:10:36;4.22;;;3.85;;